Terminal Aerodrome Forecast
Issued by NWS

Home | Current Version | Previous Version | Text Only | Print | Product List | Glossary On
Versions: 1 2 3 4 5 6 7 8 9 10 11 12 13 14 15 16
000
FTUS44 KLZK 161700
TAFHOT
TAF
KHOT 161724Z 1618/1718 14005KT P6SM SCT035 BKN100
     FM170300 09003KT P6SM SCT040
     FM170900 00000KT 3SM BR SCT020
     FM171500 18006KT P6SM SCT020=

USA.gov is the U.S. government's official web portal to all federal, state and local government web resources and services.